メインページ
METAR-TAF:

METAR-TAF

空港 :

ウランバートル, モンゴル国

チンギスハーン国際空港

緯度: 47-55N, 経度: 106-52E, 海抜: 1306m

現時点の気象観測

当レポートは1時間2分前の20:00(UTC)に作成
無風
気温 -9°C
湿度 73%
気圧 1028 hPa
視程10km以上
1,500メートル以下は雲なし、積乱雲なし

METAR: ZMUB 292000Z 00000MPS CAVOK M09/M13 Q1028 NOSIG RMK QFE662.7 69

時間: 06:02 (21:02 UTC)

予報

当レポートは4時間32分前の16:30(UTC)に作成
予報は29日の 18時(UTC)から 30日の 24時(UTC)まで有効
変向風 4kt
視程10km以上
高度10000ftの雲は散在している

TAF: ZMUB 291630Z 2918/3024 VRB02MPS 9999 SCT100 TNM10/2922Z TX08/3007Z

4,000以上の空港の気象観測と天気予報(METAR報とTAF報)

利用可能な観測所は地図上に黄色い丸と赤い丸で示す。

丸の上にカーソルを重ねると観測所名を参照できる。

次にクリックすると気象観測と天気予報を参照できる。

マップの切り替え:黒色「×」印の緑ボタンをクリックして拡大、「-」印の緑ボタンをクリックして縮小、緑色の三角印をクリックして隣りの地図に切り替え


METAR-TAF: